Time;durP1;ratioP1;P1;durP2;ratioP2;P2;SDS_P1;SDS_P2;PMS_P1;PMS_P2;Temp;Humidity;BMP_temperature;BMP_pressure;BME280_temperature;BME280_humidity;BME280_pressure;Samples;Min_cycle;Max_cycle;Signal;HPM_P1;HPM_P2
2023/03/13 00:01:50;;;;;;;10.80;3.63;;;8.20;81.20;;;;;;5054023;28;20434;-73
2023/03/13 00:04:16;;;;;;;15.77;4.10;;;8.20;81.70;;;;;;5046898;28;20458;-73
2023/03/13 00:06:41;;;;;;;9.20;3.83;;;8.20;81.70;;;;;;5031362;28;20511;-73
2023/03/13 00:09:10;;;;;;;13.93;3.83;;;8.20;81.70;;;;;;5040575;28;20209;-71
2023/03/13 00:11:36;;;;;;;7.70;4.20;;;8.20;81.80;;;;;;5044845;28;20173;-72
2023/03/13 00:14:03;;;;;;;15.53;4.70;;;8.20;81.90;;;;;;5047293;28;20423;-72
2023/03/13 00:16:29;;;;;;;13.80;5.10;;;8.30;82.10;;;;;;5047702;28;20489;-72
2023/03/13 00:18:56;;;;;;;16.63;4.70;;;8.30;81.90;;;;;;5038137;28;20462;-72
2023/03/13 00:21:25;;;;;;;9.10;3.77;;;8.20;81.90;;;;;;5045350;28;20428;-74
2023/03/13 00:23:51;;;;;;;15.17;4.90;;;8.30;82.20;;;;;;5044518;28;20427;-72
2023/03/13 00:26:19;;;;;;;14.03;5.10;;;8.30;82.10;;;;;;5044610;28;20554;-73
2023/03/13 00:28:45;;;;;;;11.83;4.00;;;8.40;81.90;;;;;;5046671;28;20474;-74
2023/03/13 00:31:14;;;;;;;13.23;4.60;;;8.40;82.10;;;;;;5052758;28;20411;-73
2023/03/13 00:33:42;;;;;;;11.37;4.23;;;8.40;81.90;;;;;;5051914;28;20906;-72
2023/03/13 00:36:11;;;;;;;13.03;4.60;;;8.40;82.10;;;;;;5052522;28;20545;-71
2023/03/13 00:38:37;;;;;;;8.97;3.90;;;8.40;81.90;;;;;;5048109;28;21008;-72
2023/03/13 00:41:11;;;;;;;14.40;4.93;;;8.40;81.90;;;;;;5033901;28;20545;-73
2023/03/13 00:43:38;;;;;;;16.17;5.20;;;8.40;82.20;;;;;;5051380;28;20794;-74
2023/03/13 00:46:03;;;;;;;9.20;3.90;;;8.40;82.20;;;;;;5052238;28;20921;-74
2023/03/13 00:48:30;;;;;;;8.50;3.90;;;8.50;82.20;;;;;;5044903;28;20463;-74
2023/03/13 00:50:56;;;;;;;20.23;4.90;;;8.50;82.40;;;;;;5049549;28;20187;-72
2023/03/13 00:53:22;;;;;;;15.00;4.30;;;8.50;82.40;;;;;;5046130;28;20894;-73
2023/03/13 00:56:03;;;;;;;16.37;4.80;;;8.50;82.20;;;;;;5030167;28;20450;-72
2023/03/13 00:58:31;;;;;;;8.60;3.70;;;8.60;81.90;;;;;;5041896;28;20481;-72
2023/03/13 01:01:04;;;;;;;13.37;4.93;;;8.50;81.80;;;;;;5048667;28;20418;-73
2023/03/13 01:03:30;;;;;;;13.33;4.50;;;8.50;81.90;;;;;;5045324;28;20415;-73
2023/03/13 01:06:00;;;;;;;16.10;3.80;;;8.50;82.20;;;;;;5047469;28;20425;-72
2023/03/13 01:08:27;;;;;;;8.90;3.90;;;8.50;82.20;;;;;;5038959;28;20932;-71
2023/03/13 01:11:00;;;;;;;11.27;4.23;;;8.60;82.40;;;;;;5040454;28;20555;-72
2023/03/13 01:13:27;;;;;;;15.10;4.90;;;8.60;82.40;;;;;;5053202;28;20423;-73
2023/03/13 01:15:52;;;;;;;11.77;4.60;;;8.60;82.50;;;;;;5046630;28;20418;-73
2023/03/13 01:18:18;;;;;;;14.63;4.80;;;8.50;82.40;;;;;;5045231;28;20431;-73
2023/03/13 01:20:43;;;;;;;9.07;3.63;;;8.50;82.50;;;;;;5038522;28;21478;-71
2023/03/13 01:23:09;;;;;;;9.93;3.80;;;8.50;82.50;;;;;;5044553;28;20272;-72
2023/03/13 01:25:37;;;;;;;14.67;4.30;;;8.50;82.50;;;;;;5046900;28;20360;-73
2023/03/13 01:28:03;;;;;;;9.50;3.77;;;8.50;82.50;;;;;;5030381;28;20215;-72
2023/03/13 01:30:30;;;;;;;18.93;4.07;;;8.50;82.50;;;;;;5043049;28;20502;-72
2023/03/13 01:32:56;;;;;;;18.70;4.60;;;8.50;82.50;;;;;;5051069;28;20423;-72
2023/03/13 01:35:21;;;;;;;12.10;4.77;;;8.50;82.50;;;;;;5048541;28;20505;-71
2023/03/13 01:37:47;;;;;;;13.03;4.90;;;8.60;82.50;;;;;;5031742;28;20239;-72
2023/03/13 01:40:12;;;;;;;8.87;4.40;;;8.60;82.50;;;;;;5046461;28;20686;-71
2023/03/13 01:42:57;;;;;;;14.80;5.00;;;8.60;82.40;;;;;;5050874;28;20390;-73
2023/03/13 01:45:57;;;;;;;14.27;5.43;;;8.60;82.20;;;;;;5048637;28;20594;-72
2023/03/13 01:48:35;;;;;;;13.43;4.47;;;8.60;82.20;;;;;;5046849;28;20529;-71
2023/03/13 01:51:05;;;;;;;9.10;4.00;;;8.60;82.20;;;;;;5047810;28;20422;-73
2023/03/13 01:53:33;;;;;;;13.53;4.93;;;8.60;82.10;;;;;;5049988;28;20526;-73
2023/03/13 01:56:01;;;;;;;9.17;4.10;;;8.70;82.10;;;;;;5053248;28;20890;-72
2023/03/13 01:58:29;;;;;;;8.40;3.53;;;8.70;81.90;;;;;;5044780;28;20455;-73
2023/03/13 02:00:55;;;;;;;10.17;3.97;;;8.70;81.90;;;;;;5033358;28;20419;-72
2023/03/13 02:03:22;;;;;;;12.87;4.90;;;8.70;82.10;;;;;;5027717;28;20427;-73
2023/03/13 02:05:49;;;;;;;9.90;4.23;;;8.70;82.20;;;;;;5050296;28;20418;-72
2023/03/13 02:08:23;;;;;;;9.40;3.87;;;8.80;82.10;;;;;;5044656;28;20428;-71
2023/03/13 02:10:53;;;;;;;12.03;4.20;;;8.70;82.20;;;;;;5044571;28;20462;-72
2023/03/13 02:13:19;;;;;;;7.90;3.97;;;8.70;82.20;;;;;;5050698;28;20761;-72
2023/03/13 02:15:46;;;;;;;11.60;3.90;;;8.80;82.10;;;;;;5045586;28;20462;-74
2023/03/13 02:18:12;;;;;;;14.23;4.27;;;8.90;81.80;;;;;;5048242;28;20419;-71
2023/03/13 02:20:39;;;;;;;8.67;3.30;;;8.90;81.40;;;;;;5050649;28;20427;-72
2023/03/13 02:23:18;;;;;;;10.83;4.00;;;8.90;81.20;;;;;;5050600;28;20461;-73
2023/03/13 02:25:46;;;;;;;8.50;3.50;;;9.00;81.10;;;;;;5044725;28;20423;-71
2023/03/13 02:28:14;;;;;;;14.67;4.60;;;9.00;81.10;;;;;;5045128;28;20465;-72
2023/03/13 02:30:42;;;;;;;10.63;3.83;;;9.00;80.90;;;;;;5049634;28;20879;-73
2023/03/13 02:33:10;;;;;;;13.23;4.27;;;9.00;80.80;;;;;;5052906;28;20436;-71
2023/03/13 02:35:36;;;;;;;9.20;3.90;;;9.10;80.20;;;;;;5051999;28;20415;-74
2023/03/13 02:38:05;;;;;;;8.70;3.27;;;9.10;79.70;;;;;;5052037;28;20800;-73
2023/03/13 02:40:36;;;;;;;6.97;2.60;;;9.10;79.60;;;;;;5049040;28;20461;-72
2023/03/13 02:43:07;;;;;;;11.23;2.57;;;9.10;79.30;;;;;;5055527;28;20480;-74
2023/03/13 02:45:33;;;;;;;6.30;2.40;;;9.20;79.30;;;;;;5052157;28;20467;-74
2023/03/13 02:47:59;;;;;;;5.73;1.93;;;9.40;78.90;;;;;;5058996;28;20512;-72
2023/03/13 02:50:24;;;;;;;7.90;2.00;;;9.80;77.80;;;;;;5045036;28;20467;-72
2023/03/13 02:52:54;;;;;;;3.57;1.63;;;10.10;76.70;;;;;;5056424;28;20271;-73
2023/03/13 02:55:35;;;;;;;3.00;1.40;;;10.40;75.50;;;;;;5037160;28;20678;-72
2023/03/13 02:58:01;;;;;;;8.20;2.13;;;10.60;74.60;;;;;;5050891;28;21083;-72
2023/03/13 03:00:26;;;;;;;11.57;2.13;;;10.80;74.20;;;;;;5048705;28;20430;-73
2023/03/13 03:02:53;;;;;;;3.33;2.03;;;10.90;73.70;;;;;;5054340;28;20645;-73
2023/03/13 03:05:20;;;;;;;4.90;1.73;;;11.00;73.60;;;;;;5055014;28;20183;-72
2023/03/13 03:07:46;;;;;;;7.53;2.00;;;11.00;73.50;;;;;;5054857;28;20480;-73
2023/03/13 03:10:12;;;;;;;4.17;1.80;;;11.00;73.50;;;;;;5048372;28;20486;-71
2023/03/13 03:12:37;;;;;;;8.07;1.60;;;11.10;73.60;;;;;;5051029;28;20211;-72
2023/03/13 03:15:03;;;;;;;3.80;2.90;;;11.00;73.50;;;;;;5053383;28;20233;-72
2023/03/13 03:17:29;;;;;;;4.33;2.00;;;11.10;73.60;;;;;;5050239;28;20177;-73
2023/03/13 03:19:55;;;;;;;3.53;1.63;;;11.00;73.90;;;;;;5050017;28;20466;-73
2023/03/13 03:22:21;;;;;;;8.47;2.13;;;11.10;74.30;;;;;;5054676;28;20427;-73
2023/03/13 03:24:46;;;;;;;5.13;2.00;;;11.10;75.10;;;;;;5051579;28;20199;-73
2023/03/13 03:27:12;;;;;;;3.30;1.80;;;11.00;76.40;;;;;;5046297;28;20438;-72
2023/03/13 03:29:38;;;;;;;6.03;2.13;;;10.90;77.30;;;;;;5029702;28;20220;-73
2023/03/13 03:32:03;;;;;;;3.07;1.60;;;10.80;77.80;;;;;;5054385;28;20273;-73
2023/03/13 03:34:29;;;;;;;4.40;1.57;;;10.80;78.30;;;;;;5054884;28;20203;-72
2023/03/13 03:36:55;;;;;;;3.10;1.70;;;10.80;78.70;;;;;;5053512;28;20246;-72
2023/03/13 03:39:20;;;;;;;5.30;2.00;;;10.80;78.90;;;;;;5045484;28;20224;-72
2023/03/13 03:41:46;;;;;;;3.97;1.50;;;10.70;79.20;;;;;;5031618;28;20204;-74
2023/03/13 03:44:11;;;;;;;4.00;1.90;;;10.80;78.90;;;;;;5056802;28;20201;-72
2023/03/13 03:46:37;;;;;;;3.70;1.43;;;10.80;78.90;;;;;;5058434;28;20223;-72
2023/03/13 03:49:02;;;;;;;3.93;1.30;;;10.90;78.70;;;;;;5056482;28;20216;-72
2023/03/13 03:51:28;;;;;;;3.10;1.40;;;10.90;78.70;;;;;;5054096;28;20191;-73
2023/03/13 03:53:53;;;;;;;5.57;1.43;;;10.90;78.60;;;;;;5056897;28;20186;-72
2023/03/13 03:56:19;;;;;;;3.83;1.53;;;11.00;78.40;;;;;;5057317;28;20177;-73
2023/03/13 03:58:45;;;;;;;5.90;1.70;;;11.00;78.40;;;;;;5050602;28;20246;-74
2023/03/13 04:01:11;;;;;;;3.40;1.40;;;11.00;78.30;;;;;;5054515;28;20411;-72
2023/03/13 04:03:37;;;;;;;4.67;1.90;;;11.10;78.30;;;;;;5058406;28;20455;-73
2023/03/13 04:06:02;;;;;;;1.57;1.30;;;11.10;78.30;;;;;;5051737;28;20652;-72
2023/03/13 04:08:28;;;;;;;5.03;1.40;;;11.10;78.40;;;;;;5043401;28;20209;-73
2023/03/13 04:10:53;;;;;;;3.00;1.20;;;11.10;78.90;;;;;;5045917;28;20216;-72
2023/03/13 04:13:19;;;;;;;1.70;0.90;;;11.20;79.00;;;;;;5048556;28;20195;-73
2023/03/13 04:15:45;;;;;;;5.63;1.23;;;11.30;79.00;;;;;;5049522;28;20554;-73
2023/03/13 04:18:10;;;;;;;1.90;1.20;;;11.50;79.50;;;;;;5050352;28;20177;-72
2023/03/13 04:20:36;;;;;;;4.30;1.10;;;11.60;79.20;;;;;;5048671;28;20618;-73
2023/03/13 04:23:02;;;;;;;3.20;1.40;;;11.70;79.30;;;;;;5046044;28;20223;-73
2023/03/13 04:25:28;;;;;;;2.03;0.90;;;11.90;79.60;;;;;;5054494;28;20208;-73
2023/03/13 04:27:53;;;;;;;3.00;1.10;;;12.00;79.60;;;;;;5028746;28;20423;-71
2023/03/13 04:30:19;;;;;;;1.83;1.10;;;12.20;79.30;;;;;;5040180;28;20232;-72
2023/03/13 04:32:44;;;;;;;5.23;1.40;;;12.20;79.20;;;;;;5053829;28;20189;-73
2023/03/13 04:35:10;;;;;;;2.23;1.17;;;12.30;79.30;;;;;;5036578;28;20181;-73
2023/03/13 04:37:35;;;;;;;2.73;0.80;;;12.30;79.30;;;;;;5054008;28;20721;-73
2023/03/13 04:40:01;;;;;;;4.70;1.20;;;12.40;79.20;;;;;;5049195;28;20577;-73
2023/03/13 04:42:27;;;;;;;2.10;1.00;;;12.40;79.20;;;;;;5052709;28;20181;-73
2023/03/13 04:44:53;;;;;;;2.07;1.03;;;12.30;79.50;;;;;;5051392;28;20427;-73
2023/03/13 04:47:18;;;;;;;1.43;1.10;;;12.40;79.50;;;;;;5050940;28;20180;-73
2023/03/13 04:49:44;;;;;;;5.90;1.67;;;12.30;79.70;;;;;;5049435;28;20228;-71
2023/03/13 04:52:10;;;;;;;1.90;0.87;;;12.40;79.70;;;;;;5047458;28;20246;-72
2023/03/13 04:54:35;;;;;;;1.40;0.90;;;12.40;79.50;;;;;;5052394;28;20196;-73
2023/03/13 04:57:01;;;;;;;2.03;1.20;;;12.40;79.60;;;;;;5048959;28;20557;-72
2023/03/13 04:59:26;;;;;;;2.00;1.10;;;12.40;79.70;;;;;;5031197;28;20675;-74
2023/03/13 05:01:52;;;;;;;3.67;1.10;;;12.40;79.70;;;;;;5049072;28;20193;-73
2023/03/13 05:04:17;;;;;;;2.27;1.30;;;12.40;79.90;;;;;;5052262;28;20286;-73
2023/03/13 05:06:43;;;;;;;3.23;1.10;;;12.30;80.00;;;;;;5050733;28;20683;-73
2023/03/13 05:09:09;;;;;;;7.77;1.80;;;12.30;80.00;;;;;;5044898;28;20577;-72
2023/03/13 05:11:35;;;;;;;1.57;1.00;;;12.30;80.20;;;;;;5052517;28;20217;-73
2023/03/13 05:14:00;;;;;;;3.83;1.00;;;12.30;80.30;;;;;;5047029;28;20510;-73
2023/03/13 05:16:26;;;;;;;1.50;1.10;;;12.30;80.50;;;;;;5048085;28;20172;-71
2023/03/13 05:18:51;;;;;;;1.60;1.00;;;12.30;80.50;;;;;;5040005;28;20213;-72
2023/03/13 05:21:17;;;;;;;1.40;1.00;;;12.30;80.50;;;;;;5053245;28;20188;-73
2023/03/13 05:23:43;;;;;;;2.07;1.33;;;12.40;80.30;;;;;;5056043;28;20647;-71
2023/03/13 05:26:08;;;;;;;2.03;1.00;;;12.30;80.30;;;;;;5053731;28;20188;-72
2023/03/13 05:28:34;;;;;;;6.20;1.17;;;12.30;80.50;;;;;;5052854;28;20229;-71
2023/03/13 05:30:59;;;;;;;1.70;0.90;;;12.30;80.60;;;;;;5055994;28;20307;-73
2023/03/13 05:33:25;;;;;;;1.53;1.10;;;12.30;80.60;;;;;;5058783;28;20195;-73
2023/03/13 05:35:51;;;;;;;3.80;0.97;;;12.30;80.60;;;;;;5057162;28;20199;-71
2023/03/13 05:38:17;;;;;;;6.00;1.03;;;12.40;80.50;;;;;;5056800;28;20199;-72
2023/03/13 05:40:42;;;;;;;1.30;1.03;;;12.40;80.20;;;;;;5031484;28;20211;-72
2023/03/13 05:43:08;;;;;;;2.70;1.17;;;12.40;80.30;;;;;;5041440;28;20810;-72
2023/03/13 05:45:33;;;;;;;3.13;1.03;;;12.40;80.20;;;;;;5051847;28;20191;-74
2023/03/13 05:47:59;;;;;;;2.57;1.63;;;12.40;80.20;;;;;;5032682;28;20189;-72
2023/03/13 05:50:25;;;;;;;1.97;1.00;;;12.40;80.00;;;;;;5043725;28;20220;-74
2023/03/13 05:52:50;;;;;;;1.00;0.80;;;12.40;79.90;;;;;;5047598;28;20189;-74
2023/03/13 05:55:17;;;;;;;1.73;1.00;;;12.50;79.70;;;;;;5050755;28;20234;-73
2023/03/13 05:57:46;;;;;;;1.10;0.90;;;12.50;79.90;;;;;;5045808;28;20185;-74
2023/03/13 06:00:15;;;;;;;1.10;0.80;;;12.60;79.90;;;;;;5044870;28;20505;-72
2023/03/13 06:02:46;;;;;;;1.30;0.80;;;12.60;79.70;;;;;;5046555;28;20564;-74
2023/03/13 06:05:12;;;;;;;3.07;1.00;;;12.60;79.30;;;;;;5029527;28;20583;-75
2023/03/13 06:07:37;;;;;;;1.50;0.90;;;12.70;79.20;;;;;;5050663;28;20431;-74
2023/03/13 06:10:04;;;;;;;1.20;0.80;;;12.70;79.00;;;;;;5040784;28;20225;-71
2023/03/13 06:12:30;;;;;;;2.17;0.80;;;12.70;78.90;;;;;;5050396;28;20187;-73
2023/03/13 06:14:56;;;;;;;2.90;0.90;;;12.70;78.90;;;;;;5050791;28;20779;-72
2023/03/13 06:17:21;;;;;;;2.37;0.97;;;12.80;78.60;;;;;;5031015;28;20453;-73
2023/03/13 06:19:47;;;;;;;1.63;1.00;;;12.80;78.60;;;;;;5047971;28;20235;-73
2023/03/13 06:22:15;;;;;;;4.23;1.10;;;12.80;78.40;;;;;;5049168;28;20239;-72
2023/03/13 06:24:43;;;;;;;1.00;0.80;;;12.90;78.30;;;;;;5048637;28;20279;-72
2023/03/13 06:27:09;;;;;;;1.10;0.80;;;12.90;78.40;;;;;;5046856;28;20787;-72
2023/03/13 06:29:35;;;;;;;1.77;0.80;;;12.90;78.30;;;;;;5042477;28;20478;-72
2023/03/13 06:32:00;;;;;;;1.07;0.80;;;12.90;78.30;;;;;;5048517;28;20577;-72
2023/03/13 06:34:26;;;;;;;1.60;0.80;;;12.90;78.60;;;;;;5048223;28;20302;-72
2023/03/13 06:36:51;;;;;;;2.50;0.90;;;13.00;78.40;;;;;;5050532;28;20192;-72
2023/03/13 06:39:17;;;;;;;1.30;0.73;;;13.00;78.60;;;;;;5047989;28;20220;-71
2023/03/13 06:41:43;;;;;;;1.10;0.80;;;13.00;78.60;;;;;;5047400;28;20238;-72
2023/03/13 06:44:08;;;;;;;1.03;0.80;;;13.10;78.60;;;;;;5047652;28;20303;-73
2023/03/13 06:46:34;;;;;;;1.57;0.70;;;13.10;78.40;;;;;;5032525;28;20191;-74
2023/03/13 06:49:03;;;;;;;1.47;0.97;;;13.20;78.30;;;;;;5048571;28;20299;-72
2023/03/13 06:51:30;;;;;;;1.80;0.70;;;13.20;78.30;;;;;;5046948;28;20292;-74
2023/03/13 06:53:55;;;;;;;1.70;1.00;;;13.20;78.30;;;;;;5049032;28;20566;-73
2023/03/13 06:56:21;;;;;;;1.83;0.90;;;13.20;78.40;;;;;;5055808;28;20192;-74
2023/03/13 06:58:48;;;;;;;3.07;1.00;;;13.20;78.30;;;;;;5046845;28;20308;-74
2023/03/13 07:01:15;;;;;;;1.10;0.90;;;13.20;78.30;;;;;;5048293;28;20180;-74
2023/03/13 07:03:41;;;;;;;2.77;0.93;;;13.20;78.40;;;;;;5033845;28;20481;-73
2023/03/13 07:06:08;;;;;;;2.50;1.10;;;13.20;78.30;;;;;;5049277;28;20894;-74
2023/03/13 07:08:35;;;;;;;1.43;0.90;;;13.20;78.30;;;;;;5045707;28;20204;-74
2023/03/13 07:11:09;;;;;;;3.77;0.80;;;13.20;78.60;;;;;;5046605;28;20497;-74
2023/03/13 07:13:35;;;;;;;4.30;1.13;;;13.30;78.60;;;;;;5031330;28;20511;-73
2023/03/13 07:16:04;;;;;;;1.37;0.90;;;13.20;78.70;;;;;;5048394;28;20443;-73
2023/03/13 07:18:30;;;;;;;1.43;0.90;;;13.20;78.70;;;;;;5044402;28;20567;-73
2023/03/13 07:20:57;;;;;;;1.27;0.70;;;13.30;78.90;;;;;;5027289;28;20432;-74
2023/03/13 07:23:24;;;;;;;2.57;1.00;;;13.20;79.00;;;;;;5047118;28;20439;-73
2023/03/13 07:26:14;;;;;;;1.97;1.13;;;13.20;79.30;;;;;;5047622;28;20477;-73
2023/03/13 07:28:40;;;;;;;2.20;1.00;;;13.30;79.30;;;;;;5033850;28;20501;-73
2023/03/13 07:31:17;;;;;;;1.10;1.00;;;13.30;79.30;;;;;;5052226;28;21001;-74
2023/03/13 07:33:43;;;;;;;1.30;1.00;;;13.30;79.50;;;;;;5056276;28;20431;-74
2023/03/13 07:36:10;;;;;;;2.10;0.93;;;13.30;79.60;;;;;;5038643;28;20926;-74
2023/03/13 07:38:36;;;;;;;1.20;0.83;;;13.30;79.60;;;;;;5050586;28;20482;-73
2023/03/13 07:41:04;;;;;;;2.37;1.40;;;13.20;79.60;;;;;;5046787;28;20438;-74
2023/03/13 07:43:30;;;;;;;3.23;1.37;;;13.20;79.70;;;;;;5050551;28;20788;-73
2023/03/13 07:46:03;;;;;;;1.93;0.80;;;13.20;79.90;;;;;;5051146;28;20435;-73
2023/03/13 07:48:32;;;;;;;2.40;1.20;;;13.30;79.70;;;;;;5052515;28;20478;-73
2023/03/13 07:50:58;;;;;;;1.90;0.93;;;13.30;79.90;;;;;;5052377;28;20569;-73
2023/03/13 07:53:24;;;;;;;2.67;0.90;;;13.30;79.70;;;;;;5053943;28;21003;-73
2023/03/13 07:55:59;;;;;;;1.70;1.00;;;13.30;79.90;;;;;;5058011;28;20180;-73
2023/03/13 07:58:28;;;;;;;2.60;0.90;;;13.30;79.70;;;;;;5053420;28;20208;-73
2023/03/13 08:00:54;;;;;;;2.10;1.20;;;13.30;79.60;;;;;;5051864;28;20426;-74
2023/03/13 08:03:20;;;;;;;1.53;0.83;;;13.40;79.60;;;;;;5053494;28;20434;-73
2023/03/13 08:05:45;;;;;;;4.30;1.00;;;13.50;79.20;;;;;;5054709;28;20284;-73
2023/03/13 08:08:11;;;;;;;2.70;1.33;;;13.50;79.00;;;;;;5052141;28;20474;-74
2023/03/13 08:10:37;;;;;;;3.20;1.40;;;13.60;78.90;;;;;;5049544;28;20224;-73
2023/03/13 08:13:03;;;;;;;1.30;1.00;;;13.70;78.60;;;;;;5057301;28;20190;-73
2023/03/13 08:15:29;;;;;;;2.83;1.10;;;13.70;78.10;;;;;;5055914;28;20192;-74
2023/03/13 08:17:55;;;;;;;2.27;1.07;;;13.80;77.70;;;;;;5050833;28;20479;-74
2023/03/13 08:20:21;;;;;;;7.30;1.97;;;13.90;77.70;;;;;;5056364;28;20962;-73
2023/03/13 08:22:47;;;;;;;1.83;1.20;;;13.90;77.40;;;;;;5058182;28;20474;-73
2023/03/13 08:25:13;;;;;;;2.90;1.10;;;14.10;77.00;;;;;;5061697;28;20187;-73
2023/03/13 08:27:38;;;;;;;2.30;0.97;;;14.10;76.80;;;;;;5050494;28;20431;-74
2023/03/13 08:30:05;;;;;;;1.83;1.20;;;14.10;76.70;;;;;;5048512;28;20478;-73
2023/03/13 08:32:35;;;;;;;1.47;0.90;;;14.20;76.70;;;;;;5055811;28;20547;-73
2023/03/13 08:35:02;;;;;;;2.23;1.00;;;14.20;76.20;;;;;;5053072;28;20848;-73
2023/03/13 08:37:27;;;;;;;1.43;1.10;;;14.30;76.10;;;;;;5051861;28;20544;-73
2023/03/13 08:39:55;;;;;;;1.67;1.00;;;14.30;76.10;;;;;;5049471;28;20628;-73
2023/03/13 08:42:21;;;;;;;2.60;1.40;;;14.30;76.20;;;;;;5052385;28;20675;-72
2023/03/13 08:44:47;;;;;;;2.63;1.33;;;14.30;76.10;;;;;;5057333;28;20796;-74
2023/03/13 08:47:13;;;;;;;1.37;1.20;;;14.30;76.10;;;;;;5053706;28;20418;-73
2023/03/13 08:49:39;;;;;;;2.47;1.30;;;14.30;75.70;;;;;;5044310;28;20217;-73
2023/03/13 08:52:05;;;;;;;1.83;1.30;;;14.40;75.70;;;;;;5052181;28;20520;-73
2023/03/13 08:54:31;;;;;;;3.27;1.37;;;14.40;75.40;;;;;;5052647;28;20268;-73
2023/03/13 08:56:58;;;;;;;3.30;1.63;;;14.40;75.40;;;;;;5030342;28;20586;-72
2023/03/13 08:59:24;;;;;;;2.17;1.07;;;14.40;75.20;;;;;;5043010;28;20491;-72
2023/03/13 09:01:50;;;;;;;3.10;1.50;;;14.50;75.20;;;;;;5049867;28;20422;-73
2023/03/13 09:04:16;;;;;;;3.10;1.23;;;14.60;74.60;;;;;;5049991;28;21118;-72
2023/03/13 09:06:42;;;;;;;2.63;1.50;;;14.70;74.30;;;;;;5052791;28;20196;-72
2023/03/13 09:09:09;;;;;;;3.60;1.60;;;14.70;74.00;;;;;;5041872;28;20479;-74
2023/03/13 09:11:38;;;;;;;2.30;1.20;;;14.70;74.00;;;;;;5048179;28;20200;-72
2023/03/13 09:14:04;;;;;;;1.50;1.30;;;14.70;73.90;;;;;;5052836;28;20979;-73
2023/03/13 09:16:31;;;;;;;1.20;1.00;;;14.80;73.90;;;;;;5047964;28;20417;-73
2023/03/13 09:18:58;;;;;;;2.23;1.07;;;14.90;73.60;;;;;;5044569;28;20458;-74
2023/03/13 09:21:34;;;;;;;2.80;1.50;;;14.90;73.50;;;;;;5046567;28;20414;-73
2023/03/13 09:24:00;;;;;;;5.23;1.63;;;15.00;73.50;;;;;;5052129;28;20894;-73
2023/03/13 09:26:27;;;;;;;2.90;1.67;;;15.00;73.00;;;;;;5051546;28;20440;-74
2023/03/13 09:28:53;;;;;;;2.30;1.20;;;15.00;73.20;;;;;;5045626;28;20475;-73
2023/03/13 09:31:22;;;;;;;2.60;1.27;;;15.00;73.00;;;;;;5049995;28;20409;-73
2023/03/13 09:33:49;;;;;;;4.03;1.53;;;15.00;73.00;;;;;;5029409;28;20427;-73
2023/03/13 09:36:16;;;;;;;2.67;1.50;;;15.10;73.00;;;;;;5051580;28;20421;-72
2023/03/13 09:38:42;;;;;;;3.60;1.43;;;15.10;72.90;;;;;;5046345;28;20523;-73
2023/03/13 09:41:16;;;;;;;4.30;1.47;;;15.00;73.00;;;;;;5050980;28;20420;-73
2023/03/13 09:44:17;;;;;;;2.70;1.70;;;15.10;73.00;;;;;;5050890;28;20446;-72
2023/03/13 09:47:23;;;;;;;4.40;1.47;;;15.10;72.90;;;;;;5050409;28;20541;-73
2023/03/13 09:50:06;;;;;;;3.90;1.70;;;15.20;72.70;;;;;;5032747;28;20509;-73
2023/03/13 09:52:39;;;;;;;2.03;1.20;;;15.30;72.60;;;;;;5031090;28;20422;-72
2023/03/13 09:55:16;;;;;;;5.87;1.60;;;15.40;72.00;;;;;;5045401;28;20900;-73
2023/03/13 09:58:00;;;;;;;4.13;1.57;;;15.40;71.40;;;;;;5042298;28;20422;-73
2023/03/13 10:00:37;;;;;;;7.27;2.40;;;15.50;71.40;;;;;;5048240;28;20969;-72
2023/03/13 10:03:24;;;;;;;4.67;1.80;;;15.60;71.40;;;;;;5053215;28;20421;-72
2023/03/13 10:05:54;;;;;;;2.30;1.53;;;15.70;70.80;;;;;;5055132;28;20450;-71
2023/03/13 10:08:25;;;;;;;3.20;1.40;;;15.70;70.40;;;;;;5047248;28;20434;-72
2023/03/13 10:11:03;;;;;;;2.80;1.60;;;15.70;70.50;;;;;;5055773;28;21016;-72
2023/03/13 10:13:37;;;;;;;4.77;2.13;;;15.70;70.10;;;;;;5061195;28;20475;-72
2023/03/13 10:16:10;;;;;;;3.17;1.80;;;15.80;70.40;;;;;;5054909;28;20421;-73
2023/03/13 10:18:37;;;;;;;5.17;2.20;;;16.00;69.80;;;;;;5049664;28;20471;-72
2023/03/13 10:21:15;;;;;;;3.57;1.67;;;16.20;69.20;;;;;;5053823;28;20430;-72
2023/03/13 10:23:45;;;;;;;5.40;2.10;;;16.40;68.90;;;;;;5056932;28;20517;-73
2023/03/13 10:26:20;;;;;;;4.47;2.00;;;16.60;68.20;;;;;;5051841;28;20451;-73
2023/03/13 10:28:46;;;;;;;4.30;1.83;;;16.70;68.20;;;;;;5030132;28;20485;-72
2023/03/13 10:31:29;;;;;;;4.80;1.83;;;16.80;67.30;;;;;;5050566;28;20480;-72
2023/03/13 10:34:05;;;;;;;2.40;1.70;;;16.80;67.30;;;;;;5053062;28;20483;-73
2023/03/13 10:36:40;;;;;;;3.60;1.80;;;16.90;67.00;;;;;;5055455;28;20426;-73
2023/03/13 10:39:13;;;;;;;4.70;1.97;;;17.00;66.90;;;;;;5056130;28;20490;-72
2023/03/13 10:41:39;;;;;;;4.90;1.87;;;17.20;66.70;;;;;;5057680;28;20428;-74
2023/03/13 10:44:14;;;;;;;3.97;2.07;;;17.20;66.60;;;;;;5058426;28;20439;-71
2023/03/13 10:46:42;;;;;;;3.03;1.87;;;17.40;66.40;;;;;;5052689;28;20191;-72
2023/03/13 10:49:19;;;;;;;3.90;2.17;;;17.30;66.00;;;;;;5051302;28;21041;-73
2023/03/13 10:51:48;;;;;;;7.20;2.10;;;17.20;66.60;;;;;;5032718;28;20426;-73
2023/03/13 10:54:29;;;;;;;3.87;1.87;;;17.20;66.70;;;;;;5052745;28;20428;-73
2023/03/13 10:57:29;;;;;;;3.20;1.87;;;17.20;66.90;;;;;;5047728;28;20419;-72
2023/03/13 10:59:55;;;;;;;5.90;2.00;;;17.50;66.10;;;;;;5052168;28;20481;-74
2023/03/13 11:02:43;;;;;;;4.97;2.20;;;18.00;65.30;;;;;;5055515;28;20456;-74
2023/03/13 11:05:38;;;;;;;4.07;1.77;;;18.30;64.20;;;;;;5056923;28;20516;-73
2023/03/13 11:08:21;;;;;;;7.20;2.40;;;18.30;64.40;;;;;;5056237;28;20808;-72
2023/03/13 11:11:17;;;;;;;6.83;2.03;;;18.30;64.40;;;;;;5056785;28;21056;-74
2023/03/13 11:13:43;;;;;;;6.60;2.00;;;18.30;64.20;;;;;;5039427;28;20466;-73
2023/03/13 11:16:15;;;;;;;3.70;2.50;;;18.20;64.80;;;;;;5049517;28;20433;-72
2023/03/13 11:18:40;;;;;;;6.07;1.70;;;18.10;64.70;;;;;;5049360;28;20465;-73
2023/03/13 11:21:12;;;;;;;3.80;1.83;;;17.90;64.80;;;;;;5050707;28;20503;-73
2023/03/13 11:23:46;;;;;;;3.27;1.97;;;17.90;65.40;;;;;;5035935;28;20189;-73
2023/03/13 11:26:28;;;;;;;5.00;2.20;;;17.90;65.30;;;;;;5050105;28;20437;-73
2023/03/13 11:29:23;;;;;;;2.80;1.97;;;17.90;65.40;;;;;;5049816;28;20531;-72
2023/03/13 11:31:57;;;;;;;2.93;2.13;;;18.00;65.60;;;;;;5058487;28;20419;-73
2023/03/13 11:34:36;;;;;;;7.33;2.33;;;18.10;65.10;;;;;;5056425;28;20418;-73
2023/03/13 11:37:10;;;;;;;5.73;2.20;;;18.20;65.00;;;;;;5054876;28;20520;-73
2023/03/13 11:39:39;;;;;;;3.17;1.93;;;18.40;64.20;;;;;;5050103;28;20481;-72
2023/03/13 11:42:42;;;;;;;5.83;2.17;;;18.70;63.50;;;;;;5054211;28;20786;-74
2023/03/13 11:45:21;;;;;;;3.10;2.00;;;18.90;62.50;;;;;;5055274;28;20432;-74
2023/03/13 11:47:55;;;;;;;2.10;1.73;;;19.10;61.90;;;;;;5053884;28;20435;-73
2023/03/13 11:50:48;;;;;;;3.47;1.80;;;19.30;61.30;;;;;;5051577;28;20830;-72
2023/03/13 11:53:40;;;;;;;2.43;1.73;;;19.40;61.00;;;;;;5047911;28;20952;-72
2023/03/13 11:56:21;;;;;;;4.30;1.80;;;19.40;61.20;;;;;;5018136;28;20435;-74
2023/03/13 11:59:05;;;;;;;5.60;1.90;;;19.50;60.70;;;;;;5043379;28;20532;-72
2023/03/13 12:01:42;;;;;;;3.87;2.40;;;19.40;60.90;;;;;;5049143;28;20779;-74
2023/03/13 12:04:45;;;;;;;4.07;2.20;;;19.50;61.20;;;;;;5051506;28;20517;-73
2023/03/13 12:07:27;;;;;;;5.53;2.00;;;19.70;60.00;;;;;;4970415;28;20439;-71
2023/03/13 12:10:10;;;;;;;5.00;2.00;;;19.50;60.60;;;;;;4971059;28;20486;-73
2023/03/13 12:12:57;;;;;;;3.63;1.73;;;19.70;60.10;;;;;;4972330;28;20429;-73
2023/03/13 12:15:31;;;;;;;4.10;1.80;;;20.00;59.60;;;;;;4971537;28;20515;-72
2023/03/13 12:18:07;;;;;;;7.03;2.03;;;20.30;58.20;;;;;;4971329;28;20439;-73
2023/03/13 12:20:54;;;;;;;4.67;1.73;;;20.50;58.20;;;;;;4971165;28;20958;-73
2023/03/13 12:23:20;;;;;;;4.60;1.90;;;20.60;57.30;;;;;;4972780;28;20441;-72
2023/03/13 12:25:57;;;;;;;3.53;2.07;;;20.50;56.60;;;;;;4971239;28;20448;-73
2023/03/13 12:28:32;;;;;;;4.03;1.83;;;20.70;56.60;;;;;;4969840;28;20598;-72
2023/03/13 12:31:16;;;;;;;4.30;1.60;;;20.70;56.00;;;;;;4967937;28;20479;-72
2023/03/13 12:33:50;;;;;;;4.50;1.60;;;20.50;56.50;;;;;;4972400;28;20437;-72
2023/03/13 12:36:25;;;;;;;4.80;1.80;;;20.70;56.20;;;;;;4967614;28;20532;-73
2023/03/13 12:39:40;;;;;;;2.00;1.43;;;20.80;55.80;;;;;;4968114;28;20475;-73
2023/03/13 12:42:30;;;;;;;6.07;1.60;;;20.80;55.80;;;;;;4981504;28;20516;-73
2023/03/13 12:44:57;;;;;;;2.20;1.93;;;20.50;56.00;;;;;;5045327;28;20426;-72
2023/03/13 12:47:49;;;;;;;3.77;2.07;;;20.30;56.00;;;;;;5052084;28;20790;-73
2023/03/13 12:50:55;;;;;;;2.80;1.53;;;20.30;56.40;;;;;;5048928;28;20505;-73
2023/03/13 12:53:42;;;;;;;4.77;1.50;;;20.50;56.10;;;;;;5049848;28;20413;-73
2023/03/13 12:56:43;;;;;;;4.50;2.47;;;20.80;55.70;;;;;;5050927;28;20461;-73
2023/03/13 12:59:12;;;;;;;2.60;1.60;;;21.00;54.80;;;;;;5042286;28;20467;-72
2023/03/13 13:01:52;;;;;;;3.47;1.60;;;21.30;54.20;;;;;;5050886;28;20417;-73
2023/03/13 13:04:21;;;;;;;5.50;1.80;;;21.10;53.80;;;;;;5053103;28;20422;-73